sensor_id;sensor_type;location;lat;lon;timestamp;temperature;humidity
41987;DHT22;28361;50.740;7.084;2023-03-23T08:58:36;17.80;1.00
41987;DHT22;28361;50.740;7.084;2023-03-23T09:01:03;15.00;12.00
41987;DHT22;28361;50.740;7.084;2023-03-23T09:03:32;14.90;19.30
41987;DHT22;28361;50.740;7.084;2023-03-23T09:05:59;14.90;18.80
41987;DHT22;28361;50.740;7.084;2023-03-23T09:08:26;14.90;18.60
41987;DHT22;28361;50.740;7.084;2023-03-23T09:10:55;14.90;13.90
41987;DHT22;28361;50.740;7.084;2023-03-23T09:13:20;15.00;12.50
41987;DHT22;28361;50.740;7.084;2023-03-23T09:15:46;15.00;11.50
41987;DHT22;28361;50.740;7.084;2023-03-23T09:18:13;15.00;11.40
41987;DHT22;28361;50.740;7.084;2023-03-23T09:20:38;15.10;8.40
41987;DHT22;28361;50.740;7.084;2023-03-23T09:23:04;15.10;9.10
41987;DHT22;28361;50.740;7.084;2023-03-23T09:25:30;15.10;3.90
41987;DHT22;28361;50.740;7.084;2023-03-23T11:31:34;15.10;5.60
41987;DHT22;28361;50.740;7.084;2023-03-23T11:34:21;16.10;13.30
41987;DHT22;28361;50.740;7.084;2023-03-23T11:41:59;16.40;1.00
41987;DHT22;28361;50.740;7.084;2023-03-23T11:44:40;16.50;1.00
41987;DHT22;28361;50.740;7.084;2023-03-23T11:47:32;16.80;1.00
41987;DHT22;28361;50.740;7.084;2023-03-23T11:52:41;17.30;1.00
41987;DHT22;28361;50.740;7.084;2023-03-23T11:57:41;16.80;1.00
41987;DHT22;28361;50.740;7.084;2023-03-23T12:00:20;16.40;1.00
41987;DHT22;28361;50.740;7.084;2023-03-23T12:18:28;17.00;1.00
41987;DHT22;28361;50.740;7.084;2023-03-23T12:38:44;16.70;1.00
41987;DHT22;28361;50.740;7.084;2023-03-23T12:41:37;16.50;1.00
41987;DHT22;28361;50.740;7.084;2023-03-23T12:44:09;16.50;1.00
41987;DHT22;28361;50.740;7.084;2023-03-23T12:52:11;16.60;1.00
41987;DHT22;28361;50.740;7.084;2023-03-23T12:54:47;16.40;1.00
41987;DHT22;28361;50.740;7.084;2023-03-23T12:57:28;16.40;1.00
41987;DHT22;28361;50.740;7.084;2023-03-23T13:07:59;16.10;1.00
41987;DHT22;28361;50.740;7.084;2023-03-23T13:10:29;16.00;1.00
41987;DHT22;28361;50.740;7.084;2023-03-23T13:12:57;16.00;1.00
41987;DHT22;28361;50.740;7.084;2023-03-23T13:15:42;16.00;1.00
41987;DHT22;28361;50.740;7.084;2023-03-23T13:23:36;16.20;1.00
41987;DHT22;28361;50.740;7.084;2023-03-23T13:26:09;16.30;1.00
41987;DHT22;28361;50.740;7.084;2023-03-23T13:28:48;16.40;1.00
41987;DHT22;28361;50.740;7.084;2023-03-23T13:31:28;16.60;1.00
41987;DHT22;28361;50.740;7.084;2023-03-23T13:36:30;16.80;1.00
41987;DHT22;28361;50.740;7.084;2023-03-23T13:38:58;16.90;1.00
41987;DHT22;28361;50.740;7.084;2023-03-23T13:41:25;17.00;1.00
41987;DHT22;28361;50.740;7.084;2023-03-23T13:43:52;17.00;1.00
41987;DHT22;28361;50.740;7.084;2023-03-23T13:46:30;17.10;1.00
41987;DHT22;28361;50.740;7.084;2023-03-23T13:49:19;17.00;1.00
41987;DHT22;28361;50.740;7.084;2023-03-23T14:30:47;17.20;1.00
41987;DHT22;28361;50.740;7.084;2023-03-23T14:33:13;16.70;1.00
41987;DHT22;28361;50.740;7.084;2023-03-23T14:35:41;16.70;1.00
41987;DHT22;28361;50.740;7.084;2023-03-23T14:38:17;16.70;1.00
41987;DHT22;28361;50.740;7.084;2023-03-23T14:40:44;16.70;1.00
41987;DHT22;28361;50.740;7.084;2023-03-23T14:43:12;16.70;1.00
41987;DHT22;28361;50.740;7.084;2023-03-23T14:45:39;16.70;1.00
41987;DHT22;28361;50.740;7.084;2023-03-23T14:48:06;16.80;1.00
41987;DHT22;28361;50.740;7.084;2023-03-23T14:50:52;16.50;1.00
41987;DHT22;28361;50.740;7.084;2023-03-23T14:53:30;16.50;1.00
41987;DHT22;28361;50.740;7.084;2023-03-23T14:56:03;16.50;1.00
41987;DHT22;28361;50.740;7.084;2023-03-23T14:58:30;16.40;1.00
41987;DHT22;28361;50.740;7.084;2023-03-23T15:03:34;16.50;1.00
41987;DHT22;28361;50.740;7.084;2023-03-23T15:08:33;16.50;1.00
41987;DHT22;28361;50.740;7.084;2023-03-23T15:13:32;17.70;1.00
41987;DHT22;28361;50.740;7.084;2023-03-23T15:16:21;18.00;1.00
41987;DHT22;28361;50.740;7.084;2023-03-23T15:19:02;17.90;1.00
41987;DHT22;28361;50.740;7.084;2023-03-23T15:21:29;18.10;1.00
41987;DHT22;28361;50.740;7.084;2023-03-23T15:23:56;18.00;1.00
41987;DHT22;28361;50.740;7.084;2023-03-23T15:26:31;18.00;1.00
41987;DHT22;28361;50.740;7.084;2023-03-23T15:29:21;18.10;1.00
41987;DHT22;28361;50.740;7.084;2023-03-23T15:31:54;17.90;1.00
41987;DHT22;28361;50.740;7.084;2023-03-23T15:36:57;17.00;1.00
41987;DHT22;28361;50.740;7.084;2023-03-23T16:33:33;16.70;1.00
41987;DHT22;28361;50.740;7.084;2023-03-23T16:35:59;16.70;1.00
41987;DHT22;28361;50.740;7.084;2023-03-23T16:38:25;16.90;1.00
41987;DHT22;28361;50.740;7.084;2023-03-23T16:40:50;16.90;1.00
41987;DHT22;28361;50.740;7.084;2023-03-23T16:43:16;16.70;1.00
41987;DHT22;28361;50.740;7.084;2023-03-23T16:45:44;16.50;1.00
41987;DHT22;28361;50.740;7.084;2023-03-23T16:48:11;16.70;1.00
41987;DHT22;28361;50.740;7.084;2023-03-23T16:50:37;16.50;1.00
41987;DHT22;28361;50.740;7.084;2023-03-23T16:53:04;16.60;1.00
41987;DHT22;28361;50.740;7.084;2023-03-23T16:55:31;16.50;1.00
41987;DHT22;28361;50.740;7.084;2023-03-23T16:57:57;16.50;1.00
